Time;durP1;ratioP1;P1;durP2;ratioP2;P2;SDS_P1;SDS_P2;PMS_P1;PMS_P2;Temp;Humidity;BMP_temperature;BMP_pressure;BME280_temperature;BME280_humidity;BME280_pressure;Samples;Min_cycle;Max_cycle;Signal;HPM_P1;HPM_P2
2022/01/21 00:03:50;;;;;;;5.05;1.30;;;;;;;-2.17;100.00;99200.09;10510678;28;20065;-55
2022/01/21 00:08:55;;;;;;;10.88;1.83;;;;;;;-2.24;100.00;99224.19;10524407;28;20051;-57
2022/01/21 00:13:58;;;;;;;8.73;1.30;;;;;;;-2.24;100.00;99235.59;10518674;28;20040;-56
2022/01/21 00:19:07;;;;;;;8.63;1.27;;;;;;;-2.31;100.00;99231.50;10519064;28;20044;-56
2022/01/21 00:34:53;;;;;;;4.07;1.25;;;;;;;-2.38;100.00;99241.44;10491600;28;20055;-58
2022/01/21 00:40:01;;;;;;;6.32;1.48;;;;;;;-2.45;100.00;99237.28;10496501;28;20142;-51
2022/01/21 00:45:12;;;;;;;6.88;1.45;;;;;;;-2.46;100.00;99242.63;10494586;28;20064;-57
2022/01/21 00:50:16;;;;;;;6.80;1.30;;;;;;;-2.55;100.00;99247.34;10519310;28;20111;-54
2022/01/21 00:55:20;;;;;;;8.18;1.38;;;;;;;-2.47;100.00;99265.53;10515213;28;20151;-58
2022/01/21 01:00:24;;;;;;;10.23;1.45;;;;;;;-2.54;100.00;99278.09;10518391;28;20119;-55
2022/01/21 01:05:28;;;;;;;7.95;1.83;;;;;;;-2.59;100.00;99285.31;10503823;28;20048;-54
2022/01/21 01:10:47;;;;;;;6.82;1.42;;;;;;;-2.64;100.00;99295.16;10415445;23;20049;-77
2022/01/21 01:21:08;;;;;;;9.07;1.63;;;;;;;-2.75;100.00;99315.78;10379386;28;20045;-78
2022/01/21 01:31:33;;;;;;;6.80;1.60;;;;;;;-2.92;100.00;99305.84;10387885;28;20065;-78
2022/01/21 01:36:36;;;;;;;7.03;1.42;;;;;;;-3.00;100.00;99309.63;10380367;28;20050;-78
2022/01/21 01:41:46;;;;;;;9.02;1.40;;;;;;;-3.01;100.00;99299.16;10388877;28;20045;-76
2022/01/21 01:52:13;;;;;;;6.63;1.55;;;;;;;-2.99;100.00;99303.44;10395535;28;20057;-76
2022/01/21 01:57:18;;;;;;;6.57;1.27;;;;;;;-3.04;100.00;99308.00;10401948;28;20045;-77
2022/01/21 02:02:21;;;;;;;9.18;1.50;;;;;;;-2.97;100.00;99317.44;10387442;28;20049;-78
2022/01/21 02:07:24;;;;;;;8.10;1.50;;;;;;;-3.03;100.00;99316.78;10398185;28;20494;-77
2022/01/21 02:12:28;;;;;;;9.40;1.50;;;;;;;-3.15;100.00;99318.94;10394192;28;20052;-77
2022/01/21 02:22:54;;;;;;;8.83;1.60;;;;;;;-3.23;100.00;99318.31;10384128;28;20048;-77
2022/01/21 02:27:59;;;;;;;6.28;1.27;;;;;;;-3.28;100.00;99313.22;10395911;28;20124;-77
2022/01/21 02:33:07;;;;;;;7.10;1.40;;;;;;;-3.31;100.00;99318.59;10397712;28;20148;-76
2022/01/21 02:38:11;;;;;;;7.25;1.42;;;;;;;-3.27;100.00;99314.09;10477027;23;20155;-84
2022/01/21 02:43:15;;;;;;;4.90;1.42;;;;;;;-3.35;100.00;99310.84;10472570;28;20131;-84
2022/01/21 02:48:22;;;;;;;10.73;1.77;;;;;;;-3.29;100.00;99316.75;10479199;28;20052;-84
2022/01/21 02:53:41;;;;;;;7.80;1.50;;;;;;;-3.28;100.00;99322.91;10495218;28;20130;-83
2022/01/21 02:58:44;;;;;;;8.00;1.65;;;;;;;-3.31;100.00;99323.00;10461210;28;20045;-83
2022/01/21 03:03:49;;;;;;;10.82;1.80;;;;;;;-3.34;100.00;99315.19;10470290;28;20059;-82
2022/01/21 03:08:57;;;;;;;11.25;1.85;;;;;;;-3.40;100.00;99321.53;10471087;28;20048;-80
2022/01/21 03:14:00;;;;;;;11.63;1.85;;;;;;;-3.39;100.00;99325.03;10474324;28;20064;-84
2022/01/21 03:19:03;;;;;;;12.13;1.58;;;;;;;-3.35;100.00;99331.94;10460938;28;20052;-84
2022/01/21 03:24:09;;;;;;;13.30;1.75;;;;;;;-3.34;100.00;99341.53;10460153;28;20104;-85
2022/01/21 03:29:13;;;;;;;11.57;1.55;;;;;;;-3.42;100.00;99344.44;10480907;28;20051;-81
2022/01/21 03:34:17;;;;;;;11.63;1.88;;;;;;;-3.39;100.00;99361.94;10465737;28;20047;-85
2022/01/21 03:39:22;;;;;;;11.50;1.95;;;;;;;-3.44;100.00;99365.56;10472473;28;20107;-84
2022/01/21 03:44:25;;;;;;;10.63;1.83;;;;;;;-3.41;100.00;99359.34;10462567;28;20055;-83
2022/01/21 03:49:35;;;;;;;11.25;1.88;;;;;;;-3.35;100.00;99353.03;10471533;28;20462;-84
2022/01/21 03:54:40;;;;;;;10.17;1.97;;;;;;;-3.37;100.00;99363.59;10460769;28;20048;-85
2022/01/21 03:59:46;;;;;;;12.45;1.95;;;;;;;-3.32;100.00;99368.69;10464894;28;20060;-86
2022/01/21 04:04:49;;;;;;;9.23;2.00;;;;;;;-3.31;100.00;99360.78;10460299;28;20037;-86
2022/01/21 04:09:55;;;;;;;9.70;1.85;;;;;;;-3.37;100.00;99363.59;10449982;28;20079;-86
2022/01/21 04:14:59;;;;;;;9.65;1.70;;;;;;;-3.36;100.00;99367.94;10468419;28;20471;-86
2022/01/21 04:20:04;;;;;;;10.50;1.83;;;;;;;-3.44;100.00;99369.97;10457220;28;20267;-84
2022/01/21 04:25:11;;;;;;;11.20;2.50;;;;;;;-3.35;100.00;99379.38;10461759;28;20496;-85
2022/01/21 04:30:15;;;;;;;14.35;2.42;;;;;;;-3.60;100.00;99395.97;10445693;28;20059;-82
2022/01/21 04:35:20;;;;;;;8.07;1.70;;;;;;;-3.67;100.00;99395.28;10464502;28;20223;-86
2022/01/21 04:40:29;;;;;;;11.65;1.92;;;;;;;-3.75;100.00;99403.41;10458865;28;20060;-86
2022/01/21 04:50:58;;;;;;;12.55;2.20;;;;;;;-3.88;100.00;99383.63;10449329;28;20045;-85
2022/01/21 04:56:09;;;;;;;13.23;2.55;;;;;;;-3.89;100.00;99380.16;10457977;28;20055;-88
2022/01/21 05:01:13;;;;;;;11.57;2.08;;;;;;;-3.87;100.00;99388.84;10460701;28;21316;-88
2022/01/21 05:06:17;;;;;;;20.27;2.28;;;;;;;-3.83;100.00;99389.63;10452813;28;20508;-86
2022/01/21 05:11:35;;;;;;;14.15;2.40;;;;;;;-3.87;100.00;99395.88;10462769;28;20045;-87
2022/01/21 05:16:45;;;;;;;15.02;2.50;;;;;;;-3.85;100.00;99396.72;10451044;28;20119;-86
2022/01/21 05:21:51;;;;;;;11.85;2.40;;;;;;;-3.88;100.00;99404.69;10456809;28;20524;-86
2022/01/21 05:27:06;;;;;;;19.10;2.33;;;;;;;-3.85;100.00;99399.34;10490902;28;20035;-83
2022/01/21 05:32:18;;;;;;;14.23;2.63;;;;;;;-3.78;100.00;99400.88;10449651;28;20063;-83
2022/01/21 05:37:39;;;;;;;13.48;2.40;;;;;;;-3.77;100.00;99399.97;10461860;28;20049;-85
2022/01/21 05:43:03;;;;;;;14.20;2.65;;;;;;;-3.67;100.00;99408.44;10461432;28;20516;-86
2022/01/21 05:48:35;;;;;;;11.13;2.30;;;;;;;-3.64;100.00;99418.03;10485880;28;20059;-86
2022/01/21 05:54:05;;;;;;;12.27;2.50;;;;;;;-3.65;100.00;99413.66;10447404;28;20132;-86
2022/01/21 05:59:27;;;;;;;14.87;2.80;;;;;;;-3.66;100.00;99415.44;10509766;28;20029;-84
2022/01/21 06:04:33;;;;;;;14.63;2.50;;;;;;;-3.64;100.00;99423.28;10513536;28;20029;-84
2022/01/21 06:09:37;;;;;;;12.93;2.47;;;;;;;-3.72;100.00;99407.72;10464765;28;20817;-87
2022/01/21 06:14:44;;;;;;;13.13;2.17;;;;;;;-3.77;100.00;99399.97;10459906;28;20052;-86
2022/01/21 06:19:50;;;;;;;16.27;2.53;;;;;;;-3.70;100.00;99389.25;10463726;28;20052;-86
2022/01/21 06:24:53;;;;;;;15.60;2.17;;;;;;;-3.57;100.00;99399.34;10461958;28;20143;-86
2022/01/21 06:30:00;;;;;;;12.07;2.17;;;;;;;-3.54;100.00;99390.47;10452079;28;20139;-87
2022/01/21 06:35:05;;;;;;;12.25;2.28;;;;;;;-3.58;100.00;99392.34;10464409;28;20041;-87
2022/01/21 06:40:09;;;;;;;15.35;2.30;;;;;;;-3.59;100.00;99381.88;10409872;28;20080;-87
2022/01/21 06:45:16;;;;;;;8.23;2.15;;;;;;;-3.53;100.00;99386.09;10420653;28;20065;-87
2022/01/21 06:50:22;;;;;;;14.32;2.30;;;;;;;-3.41;100.00;99386.53;10413469;28;20156;-85
2022/01/21 06:55:25;;;;;;;15.27;2.53;;;;;;;-3.26;100.00;99379.06;10409459;28;20064;-86
2022/01/21 07:00:32;;;;;;;19.52;2.53;;;;;;;-3.08;100.00;99381.97;10417362;28;20049;-86
2022/01/21 07:05:36;;;;;;;13.85;2.38;;;;;;;-2.92;100.00;99388.47;10418503;28;20567;-87
2022/01/21 07:10:42;;;;;;;13.18;2.50;;;;;;;-2.93;100.00;99389.38;10419102;28;20132;-86
2022/01/21 07:15:48;;;;;;;19.45;2.90;;;;;;;-2.87;100.00;99391.78;10435938;28;20115;-87
2022/01/21 07:20:51;;;;;;;12.98;2.30;;;;;;;-2.69;100.00;99400.84;10422818;28;20055;-87
2022/01/21 07:25:57;;;;;;;18.10;2.67;;;;;;;-2.62;100.00;99396.22;10420209;28;20520;-87
2022/01/21 07:31:05;;;;;;;15.43;2.38;;;;;;;-2.46;100.00;99385.97;10456785;23;20171;-53
2022/01/21 07:36:08;;;;;;;13.60;2.45;;;;;;;-2.30;100.00;99399.50;10452645;28;20056;-52
2022/01/21 07:41:12;;;;;;;11.38;2.22;;;;;;;-2.17;100.00;99392.00;10455567;28;20135;-56
2022/01/21 07:46:18;;;;;;;12.75;2.42;;;;;;;-2.08;100.00;99388.16;10465382;28;20044;-51
2022/01/21 07:51:22;;;;;;;16.50;2.38;;;;;;;-2.00;100.00;99387.88;10458884;28;20041;-59
2022/01/21 07:56:25;;;;;;;16.15;2.47;;;;;;;-1.94;100.00;99388.47;10461257;28;20497;-57
2022/01/21 08:01:30;;;;;;;14.40;2.38;;;;;;;-1.82;100.00;99388.94;10456242;28;20036;-52
2022/01/21 08:06:34;;;;;;;15.20;2.63;;;;;;;-1.74;100.00;99392.13;10454603;28;20041;-57
2022/01/21 08:11:37;;;;;;;21.65;2.70;;;;;;;-1.67;100.00;99384.84;10453281;28;20045;-52
2022/01/21 08:16:44;;;;;;;17.52;2.22;;;;;;;-1.63;100.00;99387.31;10454187;28;20124;-54
2022/01/21 08:21:47;;;;;;;12.25;2.40;;;;;;;-1.59;100.00;99388.88;10446756;28;20131;-53
2022/01/21 08:26:51;;;;;;;13.23;2.70;;;;;;;-1.55;100.00;99385.19;10449826;28;20842;-56
2022/01/21 08:31:57;;;;;;;12.23;2.55;;;;;;;-1.48;100.00;99384.97;10450478;28;20437;-54
2022/01/21 08:37:01;;;;;;;18.75;2.60;;;;;;;-1.37;100.00;99382.75;10457831;28;20033;-53
2022/01/21 08:42:06;;;;;;;13.00;2.78;;;;;;;-1.22;100.00;99383.03;10456040;28;20131;-55
2022/01/21 08:47:10;;;;;;;10.18;2.30;;;;;;;-1.15;100.00;99376.59;10447362;28;20037;-53
2022/01/21 08:52:20;;;;;;;11.63;2.50;;;;;;;-1.12;100.00;99377.31;10452354;28;20045;-52
2022/01/21 08:57:25;;;;;;;9.77;2.60;;;;;;;-1.10;100.00;99375.47;10456842;28;20049;-56
2022/01/21 09:02:30;;;;;;;12.57;2.63;;;;;;;-1.06;100.00;99386.78;10455631;28;20041;-55
2022/01/21 09:07:34;;;;;;;15.18;2.92;;;;;;;-1.04;100.00;99379.66;10462528;28;20048;-52
2022/01/21 09:12:37;;;;;;;11.85;2.72;;;;;;;-0.97;100.00;99396.97;10434033;28;20516;-55
2022/01/21 09:17:42;;;;;;;15.27;3.33;;;;;;;-0.97;100.00;99391.69;10436495;28;20403;-54
2022/01/21 09:22:46;;;;;;;20.23;3.50;;;;;;;-0.98;100.00;99399.69;10451692;28;20045;-53
2022/01/21 09:27:49;;;;;;;15.95;3.08;;;;;;;-0.93;100.00;99409.16;10455123;28;20296;-54
2022/01/21 09:32:54;;;;;;;18.42;3.08;;;;;;;-0.89;100.00;99383.44;10454447;28;20067;-54
2022/01/21 09:37:58;;;;;;;11.60;2.95;;;;;;;-0.74;100.00;99381.91;10456403;28;20037;-53
2022/01/21 09:43:19;;;;;;;11.32;3.20;;;;;;;-0.72;100.00;99379.22;10449895;28;20054;-53
2022/01/21 09:48:30;;;;;;;12.02;2.78;;;;;;;-0.72;100.00;99390.63;10445390;28;20508;-52
2022/01/21 09:53:35;;;;;;;12.65;3.00;;;;;;;-0.69;100.00;99395.81;10455931;28;20512;-52
2022/01/21 09:58:43;;;;;;;15.65;3.33;;;;;;;-0.72;100.00;99379.22;10446766;28;20045;-55
2022/01/21 10:03:51;;;;;;;14.05;3.72;;;;;;;-0.75;100.00;99380.19;10457810;28;20048;-54
2022/01/21 10:08:56;;;;;;;15.27;3.63;;;;;;;-0.74;100.00;99376.59;10462100;28;20065;-52
2022/01/21 10:13:59;;;;;;;14.00;3.53;;;;;;;-0.71;100.00;99363.25;10453631;28;20036;-55
2022/01/21 10:19:08;;;;;;;10.15;2.92;;;;;;;-0.64;100.00;99361.19;10454994;28;20404;-56
2022/01/21 10:24:13;;;;;;;17.63;3.45;;;;;;;-0.59;100.00;99355.69;10447441;28;20060;-56
2022/01/21 10:29:17;;;;;;;9.68;2.63;;;;;;;-0.52;100.00;99365.06;10457626;28;20114;-56
2022/01/21 10:34:28;;;;;;;12.80;3.00;;;;;;;-0.40;100.00;99375.13;10459992;28;20054;-55
2022/01/21 10:39:53;;;;;;;8.27;2.60;;;;;;;-0.37;100.00;99382.94;10459032;28;20045;-52
2022/01/21 10:44:58;;;;;;;14.32;3.15;;;;;;;-0.29;100.00;99372.00;10455796;28;20060;-58
2022/01/21 10:50:07;;;;;;;9.27;2.30;;;;;;;-0.25;100.00;99373.59;10459954;28;20045;-54
2022/01/21 10:55:30;;;;;;;10.20;2.63;;;;;;;-0.21;100.00;99353.13;10432534;28;20052;-55
2022/01/21 11:00:33;;;;;;;8.13;2.60;;;;;;;-0.16;100.00;99346.69;10460088;28;20061;-55
2022/01/21 11:05:41;;;;;;;10.57;2.20;;;;;;;-0.07;100.00;99349.84;10456809;28;20049;-56
2022/01/21 11:10:48;;;;;;;10.45;2.15;;;;;;;-0.04;100.00;99355.84;10457388;28;20412;-55
2022/01/21 11:15:56;;;;;;;10.60;2.28;;;;;;;-0.06;100.00;99355.06;10450061;28;20144;-56
2022/01/21 11:21:21;;;;;;;10.75;2.25;;;;;;;0.01;100.00;99360.09;10429612;28;20147;-54
2022/01/21 11:26:39;;;;;;;7.45;2.35;;;;;;;0.14;100.00;99354.13;10442541;28;20489;-57
2022/01/21 11:31:42;;;;;;;12.02;2.38;;;;;;;0.23;100.00;99346.69;10455742;28;20140;-52
2022/01/21 11:36:48;;;;;;;13.02;2.38;;;;;;;0.23;100.00;99368.75;10469552;28;20500;-56
2022/01/21 11:41:52;;;;;;;7.05;1.92;;;;;;;0.27;100.00;99367.69;10447673;28;20091;-54
2022/01/21 11:47:14;;;;;;;7.97;2.08;;;;;;;0.33;100.00;99363.00;10446705;28;20486;-55
2022/01/21 11:52:21;;;;;;;;;;;;;;;0.40;100.00;99361.78;10464545;28;20053;-51
2022/01/21 11:57:29;;;;;;;9.23;1.98;;;;;;;0.50;100.00;99376.31;10464827;28;19935;-52
2022/01/21 12:02:35;;;;;;;8.65;2.20;;;;;;;0.58;100.00;99368.00;10465372;28;20049;-52
2022/01/21 12:08:03;;;;;;;5.75;1.98;;;;;;;0.55;100.00;99370.81;10464382;28;20437;-53
2022/01/21 12:13:14;;;;;;;9.80;2.40;;;;;;;0.67;100.00;99388.75;10456108;28;20136;-57
2022/01/21 12:18:32;;;;;;;7.15;2.10;;;;;;;0.81;100.00;99382.78;10461598;28;20090;-54
2022/01/21 12:23:46;;;;;;;7.45;2.33;;;;;;;0.97;100.00;99379.38;10452587;28;20091;-54
2022/01/21 12:29:22;;;;;;;8.45;2.00;;;;;;;1.04;100.00;99364.84;10454058;28;20053;-53
2022/01/21 12:34:26;;;;;;;5.68;1.30;;;;;;;0.85;100.00;99373.75;10452833;28;20152;-56
2022/01/21 12:39:43;;;;;;;6.88;1.70;;;;;;;0.82;100.00;99360.63;10458940;28;20110;-55
2022/01/21 12:44:47;;;;;;;10.10;1.70;;;;;;;0.92;100.00;99363.69;10463479;28;20475;-54
2022/01/21 12:49:53;;;;;;;5.93;1.50;;;;;;;0.95;100.00;99358.19;10423577;28;20150;-53
2022/01/21 13:00:46;;;;;;;5.77;1.80;;;;;;;1.16;100.00;99348.31;10441147;28;20144;-53
2022/01/21 13:05:58;;;;;;;5.25;1.33;;;;;;;1.19;100.00;99352.59;10448001;28;20068;-53
2022/01/21 13:11:19;;;;;;;3.15;1.13;;;;;;;1.24;100.00;99347.91;10484958;23;20110;-80
2022/01/21 13:16:30;;;;;;;4.55;1.45;;;;;;;1.41;100.00;99341.72;10482757;28;20029;-80
2022/01/21 13:21:36;;;;;;;4.38;1.08;;;;;;;1.39;100.00;99348.91;10461838;28;20045;-79
2022/01/21 13:26:43;;;;;;;3.80;1.38;;;;;;;1.48;100.00;99351.06;10474615;28;20041;-82
2022/01/21 13:31:54;;;;;;;5.03;1.30;;;;;;;1.35;100.00;99347.38;10456630;28;20463;-80
2022/01/21 13:37:00;;;;;;;4.93;1.20;;;;;;;1.27;100.00;99344.22;10464406;28;20056;-81
2022/01/21 13:42:10;;;;;;;3.00;1.10;;;;;;;1.29;100.00;99345.00;10444188;28;20063;-84
2022/01/21 13:47:32;;;;;;;3.78;1.20;;;;;;;1.36;100.00;99349.06;10456696;28;20057;-80
2022/01/21 13:52:44;;;;;;;3.28;1.02;;;;;;;1.47;100.00;99341.38;10448979;28;20140;-79
2022/01/21 13:57:48;;;;;;;;;;;;;;;1.54;100.00;99353.41;10457393;28;20390;-78
2022/01/21 14:03:12;;;;;;;3.38;1.00;;;;;;;1.60;100.00;99356.66;10430794;28;19928;-76
2022/01/21 14:08:19;;;;;;;3.83;1.15;;;;;;;1.63;100.00;99353.88;10440356;28;20060;-78
2022/01/21 14:13:26;;;;;;;5.55;1.38;;;;;;;1.80;100.00;99351.19;10443665;28;20048;-78
2022/01/21 14:18:32;;;;;;;5.15;1.15;;;;;;;1.72;100.00;99356.03;10447004;28;20051;-77
2022/01/21 14:23:37;;;;;;;3.67;1.40;;;;;;;1.79;100.00;99360.09;10442508;28;20072;-79
2022/01/21 14:28:49;;;;;;;3.65;1.23;;;;;;;1.91;100.00;99361.22;10429118;28;20139;-77
2022/01/21 14:33:52;;;;;;;4.15;1.15;;;;;;;1.93;100.00;99362.00;10432246;28;20497;-77
2022/01/21 14:39:13;;;;;;;7.18;1.30;;;;;;;1.92;100.00;99372.72;10443586;28;20667;-76
2022/01/21 14:44:31;;;;;;;3.87;1.40;;;;;;;1.93;100.00;99371.78;10430684;28;20068;-78
2022/01/21 14:49:35;;;;;;;4.28;1.08;;;;;;;1.88;100.00;99368.50;10448294;28;20079;-78
2022/01/21 14:54:40;;;;;;;4.40;1.25;;;;;;;1.91;100.00;99376.31;10455192;28;20120;-77
2022/01/21 14:59:55;;;;;;;4.30;1.17;;;;;;;1.81;100.00;99384.78;10453711;28;20032;-78
2022/01/21 15:05:01;;;;;;;4.05;1.55;;;;;;;1.83;100.00;99374.91;10433905;28;20056;-78
2022/01/21 15:10:22;;;;;;;3.42;1.10;;;;;;;2.13;100.00;99381.28;10474637;28;20053;-78
2022/01/21 15:15:35;;;;;;;4.77;1.37;;;;;;;2.11;100.00;99380.56;10470913;28;20048;-77
2022/01/21 15:20:39;;;;;;;5.35;1.35;;;;;;;2.08;100.00;99380.72;10458696;28;20483;-78
2022/01/21 15:25:43;;;;;;;3.67;1.25;;;;;;;2.06;100.00;99375.47;10469929;28;20134;-77
2022/01/21 15:30:48;;;;;;;2.58;1.25;;;;;;;1.92;100.00;99375.38;10454318;28;20048;-78
2022/01/21 15:35:51;;;;;;;4.63;1.40;;;;;;;1.22;100.00;99379.84;10457261;28;20053;-78
2022/01/21 15:40:54;;;;;;;4.25;1.23;;;;;;;0.87;100.00;99374.53;10449577;28;20068;-78
2022/01/21 15:45:58;;;;;;;6.05;1.60;;;;;;;0.68;100.00;99381.66;10470966;28;20063;-79
2022/01/21 15:51:02;;;;;;;4.20;1.30;;;;;;;0.50;100.00;99386.94;10455722;28;20041;-79
2022/01/21 15:56:06;;;;;;;4.32;1.45;;;;;;;0.42;100.00;99381.13;10460478;28;20053;-78
2022/01/21 16:01:11;;;;;;;6.30;1.60;;;;;;;0.30;100.00;99390.53;10444775;28;20114;-80
2022/01/21 16:06:17;;;;;;;7.75;1.60;;;;;;;0.28;100.00;99397.69;10443536;28;20045;-79
2022/01/21 16:11:20;;;;;;;3.97;1.30;;;;;;;0.24;100.00;99394.31;10436267;28;20572;-79
2022/01/21 16:16:25;;;;;;;5.97;1.52;;;;;;;0.20;100.00;99397.19;10446631;28;20044;-79
2022/01/21 16:21:28;;;;;;;6.68;1.60;;;;;;;0.20;100.00;99399.84;10458305;28;20513;-78
2022/01/21 16:26:32;;;;;;;7.20;1.42;;;;;;;0.19;100.00;99398.13;10441291;28;20139;-80
2022/01/21 16:31:37;;;;;;;7.78;1.50;;;;;;;0.19;100.00;99404.25;10445225;28;20045;-80
2022/01/21 16:36:40;;;;;;;7.45;1.60;;;;;;;0.18;100.00;99407.00;10446265;28;20043;-80
2022/01/21 16:41:44;;;;;;;8.75;2.42;;;;;;;0.09;100.00;99392.38;10442153;28;20132;-80
2022/01/21 16:46:49;;;;;;;9.10;3.47;;;;;;;0.05;100.00;99390.81;10462523;28;20643;-81
2022/01/21 16:51:52;;;;;;;7.70;3.83;;;;;;;0.01;100.00;99394.53;10455862;28;20037;-79
2022/01/21 16:56:56;;;;;;;10.65;3.08;;;;;;;0.02;100.00;99391.78;10476701;28;20065;-79
2022/01/21 17:02:01;;;;;;;5.72;2.38;;;;;;;0.10;100.00;99394.09;10454375;28;20045;-78
2022/01/21 17:07:05;;;;;;;10.43;2.25;;;;;;;0.19;100.00;99396.31;10450442;28;20099;-80
2022/01/21 17:12:13;;;;;;;7.00;2.10;;;;;;;0.30;100.00;99401.97;10447364;28;20044;-79
2022/01/21 17:17:19;;;;;;;9.95;2.35;;;;;;;0.35;100.00;99385.88;10447146;28;20070;-79
2022/01/21 17:22:23;;;;;;;7.95;2.00;;;;;;;0.43;100.00;99396.09;10457350;28;20068;-81
2022/01/21 17:27:28;;;;;;;6.45;1.92;;;;;;;0.52;100.00;99398.31;10444429;28;20102;-79
2022/01/21 17:32:35;;;;;;;7.45;1.90;;;;;;;0.58;100.00;99394.53;10446211;28;20472;-80
2022/01/21 17:37:40;;;;;;;8.07;2.00;;;;;;;0.63;100.00;99387.19;10450594;28;20580;-81
2022/01/21 17:42:43;;;;;;;6.70;1.80;;;;;;;0.68;100.00;99382.53;10438802;28;20049;-79
2022/01/21 17:47:50;;;;;;;9.20;2.00;;;;;;;0.72;100.00;99380.59;10445365;28;20029;-81
2022/01/21 17:52:56;;;;;;;6.90;2.20;;;;;;;0.73;100.00;99387.59;10448876;28;20045;-81
2022/01/21 17:58:01;;;;;;;6.32;1.85;;;;;;;0.72;100.00;99392.03;10441982;28;20048;-80
2022/01/21 18:03:08;;;;;;;5.55;2.13;;;;;;;0.76;100.00;99392.78;10451045;28;20719;-79
2022/01/21 18:08:12;;;;;;;3.42;2.00;;;;;;;0.77;100.00;99387.38;10442938;28;20439;-80
2022/01/21 18:13:22;;;;;;;4.57;2.63;;;;;;;0.83;100.00;99388.88;10469487;28;20037;-81
2022/01/21 18:18:30;;;;;;;6.00;2.70;;;;;;;0.87;100.00;99395.75;10470081;28;20124;-80
2022/01/21 18:23:33;;;;;;;5.18;2.67;;;;;;;0.88;100.00;99388.63;10450654;28;20104;-78
2022/01/21 18:28:37;;;;;;;6.25;2.40;;;;;;;0.90;100.00;99392.94;10450116;28;20045;-77
2022/01/21 18:33:43;;;;;;;6.95;3.00;;;;;;;0.95;100.00;99390.03;10453160;28;20590;-78
2022/01/21 18:38:46;;;;;;;6.68;3.33;;;;;;;0.96;100.00;99390.91;10447844;28;20158;-78
2022/01/21 18:44:05;;;;;;;6.32;3.30;;;;;;;0.96;100.00;99394.41;10449376;28;20414;-77
2022/01/21 18:49:12;;;;;;;8.77;4.25;;;;;;;0.96;100.00;99388.25;10450156;28;20037;-80
2022/01/21 18:54:16;;;;;;;6.88;4.15;;;;;;;0.97;100.00;99389.97;10448474;28;20069;-76
2022/01/21 18:59:20;;;;;;;9.60;4.18;;;;;;;0.97;100.00;99392.63;10442911;28;20075;-76
2022/01/21 19:04:24;;;;;;;10.25;3.90;;;;;;;1.00;100.00;99389.84;10441706;28;20053;-83
2022/01/21 19:09:28;;;;;;;7.90;3.90;;;;;;;1.01;100.00;99383.56;10428022;28;20085;-77
2022/01/21 19:14:31;;;;;;;10.05;3.90;;;;;;;0.99;100.00;99373.03;10415721;28;20049;-78
2022/01/21 19:19:36;;;;;;;7.22;3.95;;;;;;;1.00;100.00;99372.09;10427073;28;20044;-78
2022/01/21 19:24:41;;;;;;;9.45;4.18;;;;;;;0.98;100.00;99378.44;10423030;28;20048;-78
2022/01/21 19:29:47;;;;;;;11.60;4.75;;;;;;;0.99;100.00;99382.81;10428433;28;20044;-78
2022/01/21 19:34:51;;;;;;;12.60;5.70;;;;;;;1.03;100.00;99381.69;10442052;28;20059;-76
2022/01/21 19:39:54;;;;;;;13.48;5.30;;;;;;;1.03;100.00;99384.34;10445974;28;20141;-78
2022/01/21 19:45:00;;;;;;;13.77;5.43;;;;;;;1.05;100.00;99377.19;10417444;28;20747;-79
2022/01/21 19:50:05;;;;;;;14.20;5.40;;;;;;;1.07;100.00;99375.31;10402215;28;20139;-78
2022/01/21 19:55:09;;;;;;;14.20;5.50;;;;;;;1.08;100.00;99379.69;10406528;28;20084;-78
2022/01/21 20:00:35;;;;;;;14.05;5.75;;;;;;;1.12;100.00;99373.28;10430478;28;20568;-78
2022/01/21 20:11:28;;;;;;;12.25;5.93;;;;;;;1.04;100.00;99364.84;10443261;28;20505;-78
2022/01/21 20:16:32;;;;;;;17.90;7.20;;;;;;;0.96;100.00;99351.13;10445828;28;20056;-79
2022/01/21 20:21:39;;;;;;;14.48;7.57;;;;;;;0.87;100.00;99348.00;10448617;28;20056;-76
2022/01/21 20:26:44;;;;;;;15.68;7.68;;;;;;;0.84;100.00;99348.16;10441232;28;20041;-77
2022/01/21 20:31:50;;;;;;;11.10;7.85;;;;;;;0.79;100.00;99338.69;10443614;28;20504;-76
2022/01/21 20:36:58;;;;;;;13.38;8.23;;;;;;;0.76;100.00;99337.06;10453050;28;20067;-75
2022/01/21 20:42:05;;;;;;;16.02;8.43;;;;;;;0.71;100.00;99317.84;10445725;28;20726;-77
2022/01/21 20:47:12;;;;;;;16.27;9.20;;;;;;;0.64;100.00;99308.50;10466738;28;20087;-76
2022/01/21 20:52:20;;;;;;;14.07;9.60;;;;;;;0.61;100.00;99307.72;10436067;28;20076;-76
2022/01/21 20:57:24;;;;;;;13.55;8.95;;;;;;;0.64;100.00;99309.34;10452393;28;20072;-79
2022/01/21 21:02:28;;;;;;;18.13;9.85;;;;;;;0.59;100.00;99291.00;10439753;28;20140;-78
2022/01/21 21:07:33;;;;;;;14.07;9.07;;;;;;;0.58;100.00;99289.28;10452930;28;20053;-76
2022/01/21 21:12:41;;;;;;;15.55;9.40;;;;;;;0.58;100.00;99283.16;10457740;28;20047;-77
2022/01/21 21:17:52;;;;;;;14.48;7.47;;;;;;;0.68;100.00;99280.88;10463031;28;20056;-76
2022/01/21 21:28:33;;;;;;;13.80;8.75;;;;;;;0.75;100.00;99258.44;10445765;28;20447;-78
2022/01/21 22:17:04;;;;;;;6.43;5.38;;;;;;;1.36;100.00;99201.25;10449835;28;20047;-79
2022/01/21 22:27:51;;;;;;;7.37;6.17;;;;;;;1.43;100.00;99190.28;10440450;28;20127;-78
2022/01/21 22:59:52;;;;;;;6.78;4.97;;;;;;;1.63;100.00;99166.16;10445827;28;20053;-77
2022/01/21 23:04:58;;;;;;;6.82;6.13;;;;;;;1.63;100.00;99170.59;10454983;28;20123;-76
2022/01/21 23:10:01;;;;;;;6.88;6.15;;;;;;;1.64;100.00;99170.53;10456918;28;20056;-76
2022/01/21 23:15:11;;;;;;;8.85;6.93;;;;;;;1.64;100.00;99151.06;10482932;28;20041;-76
2022/01/21 23:20:17;;;;;;;8.75;7.40;;;;;;;1.62;100.00;99163.56;10431117;23;20045;-63
2022/01/21 23:25:23;;;;;;;9.05;6.88;;;;;;;1.64;100.00;99157.22;10404862;28;20304;-60
2022/01/21 23:30:29;;;;;;;6.53;5.53;;;;;;;1.74;100.00;99141.59;10405207;28;20052;-62
2022/01/21 23:35:34;;;;;;;7.78;6.55;;;;;;;1.72;100.00;99140.84;10404494;28;20053;-57
2022/01/21 23:40:40;;;;;;;9.32;7.32;;;;;;;1.75;100.00;99143.31;10401646;28;20046;-62
2022/01/21 23:45:45;;;;;;;10.43;7.63;;;;;;;1.73;100.00;99134.59;10404427;28;20501;-62
2022/01/21 23:50:51;;;;;;;7.68;6.80;;;;;;;1.78;100.00;99131.66;10401672;28;20516;-61
2022/01/21 23:56:07;;;;;;;8.13;7.13;;;;;;;1.81;100.00;99161.59;10405020;28;20045;-60
